Celandine — ONDN — position and weather

sailwx.info

Track history (hours):
 
Tides and Currents Weather Stations Pressure Air Temp Water Temp Dewpoint Dewpoint Depression Visibility Wind Speed Wind Dir Waves Ship Positions

Celandine

Last reported at 2015-Jan-25 13:33 UTC. Time now 2015-Jan-25 14:16 UTC.
Position N 55°29' E 008°22'.

Length 162 m; draft 6 m.

Type: Ship (hazmat cat A). MMSI: 205476000.

Date/timePositionNaut miles runAvg speedWind from/ knotsBaromVisibWave heightAir tempDewpointWater temp
2015-Jan-25 13:33N 55°29' E 008°22'3 3.2
2015-Jan-25 12:32N 55°27' E 008°27'0 0.0
2015-Jan-25 11:32N 55°27' E 008°27'0 0.0
2015-Jan-25 10:29N 55°27' E 008°27'0 0.0
2015-Jan-25 09:32N 55°27' E 008°27'0 0.0
2015-Jan-25 08:32N 55°27' E 008°27'0 0.0
2015-Jan-25 07:32N 55°27' E 008°27'3 3.3
2015-Jan-25 06:33N 55°29' E 008°22'1313.1
2015-Jan-25 05:33N 55°20' E 008°04'1413.9
2015-Jan-25 04:33N 55°10' E 007°47'1414.0
2015-Jan-25 03:34N 55°00' E 007°30'7514.8
2015-Jan-24 22:31N 54°04' E 006°07'1617.0
2015-Jan-24 21:33N 53°55' E 005°44'1717.3
2015-Jan-24 20:33N 53°46' E 005°19'1717.4
2015-Jan-24 19:33N 53°37' E 004°53'1716.6
2015-Jan-24 18:33N 53°22' E 004°41'1716.8
2015-Jan-24 17:34N 53°07' E 004°29'1616.3
2015-Jan-24 16:33N 52°53' E 004°15'1616.0
2015-Jan-24 15:33N 52°40' E 003°60'1615.6
2015-Jan-24 14:33N 52°29' E 003°42'3014.1
2015-Jan-24 12:26N 52°01' E 003°23'1213.3
2015-Jan-24 11:31N 51°50' E 003°16'1213.0
2015-Jan-24 10:33N 51°38' E 003°08'1313.3
2015-Jan-24 09:33N 51°26' E 003°00'9 9.5
2015-Jan-24 08:33N 51°21' E 003°13'0 0.0
2015-Jan-24 07:31N 51°21' E 003°13'0 0.0
2015-Jan-24 06:31N 51°21' E 003°13'0 0.0
2015-Jan-24 05:31N 51°21' E 003°13'0 0.0
2015-Jan-24 04:31N 51°21' E 003°13'0 0.0
2015-Jan-24 03:31N 51°21' E 003°13'2 2.5
2015-Jan-24 02:34N 51°22' E 003°10'2216.3
2015-Jan-24 01:14N 51°35' E 002°42'1116.3
2015-Jan-24 00:33N 51°35' E 002°24'1515.4
2015-Jan-23 23:33N 51°36' E 001°59'1514.7
2015-Jan-23 22:34N 51°31' E 001°37'1514.9
2015-Jan-23 21:33N 51°29' E 001°14'1515.4
2015-Jan-23 20:33N 51°29' E 000°49'1616.1
2015-Jan-23 19:33N 51°27' E 000°23'5 5.4
2015-Jan-23 18:33N 51°28' E 000°15'0 0.0
2015-Jan-23 17:32N 51°28' E 000°15'0 0.0
2015-Jan-23 16:32N 51°28' E 000°15'0 0.0
2015-Jan-23 15:32N 51°28' E 000°15'0 0.0
2015-Jan-23 14:32N 51°28' E 000°15'0 0.0
2015-Jan-23 13:32N 51°28' E 000°15'0 0.0
2015-Jan-23 12:33N 51°28' E 000°15'5 4.9
2015-Jan-23 11:34N 51°27' E 000°22'1010.4
2015-Jan-23 10:33N 51°30' E 000°38'1211.9
2015-Jan-23 09:34N 51°29' E 000°57'1111.5
2015-Jan-23 08:33N 51°29' E 001°16'1312.9
2015-Jan-23 07:33N 51°31' E 001°36'1414.4
2015-Jan-23 06:33N 51°37' E 001°58'1514.6
2015-Jan-23 05:32N 51°37' E 002°22'3014.9
2015-Jan-23 03:32N 51°24' E 003°05'6 6.4
2015-Jan-23 02:33N 51°21' E 003°13'0 0.0
2015-Jan-23 01:33N 51°21' E 003°13'0 0.0
2015-Jan-23 00:30N 51°21' E 003°13'0 0.0
2015-Jan-22 23:30N 51°21' E 003°13'0 0.0
2015-Jan-22 22:33N 51°21' E 003°13'0 0.0
2015-Jan-22 21:33N 51°21' E 003°13'0 0.0
2015-Jan-22 20:33N 51°21' E 003°13'1211.8
2015-Jan-22 19:34N 51°27' E 002°57'1515.2
2015-Jan-22 18:34N 51°34' E 002°36'1615.6
2015-Jan-22 17:33N 51°41' E 002°12'1717.1
2015-Jan-22 16:34N 51°34' E 001°47'1717.4
2015-Jan-22 15:34N 51°29' E 001°20'1817.8
2015-Jan-22 14:34N 51°29' E 000°52'1514.9
2015-Jan-22 13:33N 51°29' E 000°28'8 7.9
2015-Jan-22 12:33N 51°28' E 000°15'0 0.0
2015-Jan-22 11:33N 51°28' E 000°15'0 0.0
2015-Jan-22 10:33N 51°28' E 000°15'0 0.0
2015-Jan-22 09:33N 51°28' E 000°15'0 0.0
2015-Jan-22 08:33N 51°28' E 000°15'0 0.0
2015-Jan-22 07:33N 51°28' E 000°15'0 0.0
2015-Jan-22 06:33N 51°28' E 000°15'1 0.9
2015-Jan-22 05:34N 51°28' E 000°16'7 7.0
2015-Jan-22 04:34N 51°29' E 000°27'1111.4
2015-Jan-22 03:34N 51°30' E 000°46'1414.0
2015-Jan-22 02:33N 51°29' E 001°08'1515.3
2015-Jan-22 01:33N 51°30' E 001°33'1615.8
2015-Jan-22 00:34N 51°32' E 001°58'1616.1
2015-Jan-21 23:33N 51°28' E 002°23'1216.0
2015-Jan-21 22:50N 51°28' E 002°42'116.9
2015-Jan-21 22:46N 51°28' E 002°43'417.2
2015-Jan-21 22:32N 51°27' E 002°49'1515.6
2015-Jan-21 21:33N 51°21' E 003°12'1 0.7
2015-Jan-21 20:31N 51°21' E 003°13'0 0.0
2015-Jan-21 19:31N 51°21' E 003°13'0 0.0
2015-Jan-21 18:31N 51°21' E 003°13'0 0.0
2015-Jan-21 17:31N 51°21' E 003°13'0 0.0
2015-Jan-21 16:31N 51°21' E 003°13'0 0.0
2015-Jan-21 15:31N 51°21' E 003°13'0 0.0
2015-Jan-21 14:31N 51°21' E 003°13'1010.4
2015-Jan-21 13:34N 51°26' E 002°59'1716.8
2015-Jan-21 12:34N 51°34' E 002°36'1717.3
2015-Jan-21 11:34N 51°36' E 002°08'1515.2
2015-Jan-21 10:34N 51°33' E 001°44'1414.3
2015-Jan-21 09:34N 51°29' E 001°22'1414.4
2015-Jan-21 08:33N 51°29' E 000°59'1616.2
2015-Jan-21 07:33N 51°30' E 000°33'10 9.7
2015-Jan-21 06:34N 51°28' E 000°18'2 1.9
2015-Jan-21 05:31N 51°28' E 000°15'0 0.0
2015-Jan-21 04:31N 51°28' E 000°15'0 0.0
2015-Jan-21 03:31N 51°28' E 000°15'0 0.0
2015-Jan-21 02:31N 51°28' E 000°15'0 0.0
2015-Jan-21 01:31N 51°28' E 000°15'0 0.0
2015-Jan-21 00:31N 51°28' E 000°15'1 0.7
2015-Jan-20 23:33N 51°28' E 000°16'1110.6
2015-Jan-20 22:34N 51°30' E 000°32'1212.4
2015-Jan-20 21:33N 51°29' E 000°52'1717.3
2015-Jan-20 20:33N 51°29' E 001°20'1716.7
2015-Jan-20 19:34N 51°30' E 001°47'1716.7
2015-Jan-20 18:34N 51°29' E 002°13'1716.4
2015-Jan-20 17:32N 51°29' E 002°41'1616.7
2015-Jan-20 16:33N 51°24' E 003°06'6 5.8
2015-Jan-20 15:33N 51°21' E 003°13'0 0.0
2015-Jan-20 14:33N 51°21' E 003°13'0 0.0
2015-Jan-20 13:33N 51°21' E 003°13'0 0.0
2015-Jan-20 12:33N 51°21' E 003°13'0 0.0
2015-Jan-20 11:30N 51°21' E 003°13'0 0.0
2015-Jan-20 10:33N 51°21' E 003°13'0 0.0
2015-Jan-20 09:33N 51°21' E 003°13'9 8.9
2015-Jan-20 08:33N 51°25' E 003°01'1413.9
2015-Jan-20 07:32N 51°33' E 002°42'1515.7
2015-Jan-20 06:34N 51°35' E 002°18'1615.6
2015-Jan-20 05:33N 51°32' E 001°53'1716.6
2015-Jan-20 04:33N 51°29' E 001°27'1817.9
2015-Jan-20 03:33N 51°29' E 000°58'1918.9
2015-Jan-20 02:34N 51°29' E 000°28'8 8.0
2015-Jan-20 01:33N 51°28' E 000°15'0 0.0
2015-Jan-20 00:34N 51°28' E 000°15'0 0.0
2015-Jan-19 23:34N 51°28' E 000°15'0 0.0
2015-Jan-19 22:34N 51°28' E 000°15'0 0.0
2015-Jan-19 21:31N 51°28' E 000°15'0 0.0
2015-Jan-19 20:34N 51°28' E 000°15'0 0.0
2015-Jan-19 19:34N 51°28' E 000°15'1 0.7
2015-Jan-19 18:34N 51°28' E 000°16'9 8.8
2015-Jan-19 17:33N 51°30' E 000°30'1212.1
2015-Jan-19 16:33N 51°29' E 000°49'1414.1
2015-Jan-19 15:33N 51°29' E 001°12'1514.8
2015-Jan-19 14:34N 51°30' E 001°35'1615.7
2015-Jan-19 13:34N 51°33' E 002°00'1615.6
2015-Jan-19 12:33N 51°31' E 002°25'1615.7
2015-Jan-19 11:33N 51°27' E 002°50'1514.6
2015-Jan-19 10:33N 51°22' E 003°11'2 1.8
2015-Jan-19 09:32N 51°21' E 003°13'0 0.0
2015-Jan-19 08:29N 51°21' E 003°13'0 0.0
2015-Jan-19 07:32N 51°21' E 003°13'0 0.0
2015-Jan-19 06:32N 51°21' E 003°13'0 0.0
2015-Jan-19 05:32N 51°21' E 003°13'0 0.0
2015-Jan-19 04:32N 51°21' E 003°13'0 0.0
2015-Jan-19 03:32N 51°21' E 003°13'0 0.0
2015-Jan-19 02:32N 51°21' E 003°13'6 6.2
2015-Jan-19 01:33N 51°24' E 003°05'1616.3
2015-Jan-19 00:33N 51°33' E 002°43'1616.5
2015-Jan-18 23:34N 51°35' E 002°17'1615.7
2015-Jan-18 22:34N 51°34' E 001°51'1615.9
2015-Jan-18 21:33N 51°29' E 001°27'1515.0
2015-Jan-18 20:34N 51°29' E 001°03'1515.2
2015-Jan-18 19:34N 51°30' E 000°39'1111.0
2015-Jan-18 18:34N 51°27' E 000°22'4 4.5
2015-Jan-18 17:33N 51°28' E 000°15'0 0.0
2015-Jan-18 16:33N 51°28' E 000°15'0 0.0
2015-Jan-18 15:33N 51°28' E 000°15'0 0.0
2015-Jan-18 14:33N 51°28' E 000°15'0 0.0
2015-Jan-18 13:33N 51°28' E 000°15'0 0.0
2015-Jan-18 12:33N 51°28' E 000°15'0 0.0
2015-Jan-18 11:33N 51°28' E 000°15'0 0.0
2015-Jan-18 10:33N 51°28' E 000°15'0 0.0
2015-Jan-18 09:33N 51°28' E 000°15'0 0.4
2015-Jan-18 08:33N 51°28' E 000°16'9 8.6
2015-Jan-18 07:34N 51°30' E 000°29'1515.4
2015-Jan-18 06:33N 51°29' E 000°54'1616.4
2015-Jan-18 05:33N 51°29' E 001°20'1313.3
2015-Jan-18 04:33N 51°32' E 001°41'1313.4
2015-Jan-18 03:33N 51°38' E 002°00'9 8.4
2015-Jan-18 02:27N 51°39' E 002°15'1112.7
2015-Jan-18 01:33N 51°35' E 002°32'1212.1
2015-Jan-18 00:32N 51°30' E 002°51'1312.7
2015-Jan-17 23:33N 51°24' E 003°08'5 4.6
2015-Jan-17 22:33N 51°21' E 003°13'0 0.0
2015-Jan-17 21:18N 51°21' E 003°13'0 0.0
2015-Jan-17 20:18N 51°21' E 003°13'0 0.0
2015-Jan-17 19:30N 51°21' E 003°13'0 0.0
2015-Jan-17 18:24N 51°21' E 003°13'0 0.0
2015-Jan-17 14:13N 51°21' E 003°13'6 9.7
2015-Jan-17 13:33N 51°24' E 003°05'1312.3
2015-Jan-17 12:32N 51°31' E 002°48'1615.7
2015-Jan-17 11:33N 51°36' E 002°24'1515.0
2015-Jan-17 10:33N 51°37' E 002°00'1817.6
2015-Jan-17 09:33N 51°30' E 001°34'1616.1
2015-Jan-17 08:33N 51°29' E 001°08'1615.7
2015-Jan-17 07:33N 51°30' E 000°43'1312.8
2015-Jan-17 06:34N 51°27' E 000°23'5 5.0
2015-Jan-17 05:33N 51°28' E 000°15'0 0.0
2015-Jan-17 04:32N 51°28' E 000°15'0 0.0
2015-Jan-17 03:32N 51°28' E 000°15'0 0.0
2015-Jan-17 02:32N 51°28' E 000°15'0 0.0
2015-Jan-17 01:32N 51°28' E 000°15'0 0.0
2015-Jan-17 00:32N 51°28' E 000°15'1 1.2
2015-Jan-16 23:34N 51°28' E 000°16'8 8.3
2015-Jan-16 22:33N 51°30' E 000°29'1312.8
2015-Jan-16 21:33N 51°29' E 000°50'1414.2
2015-Jan-16 20:33N 51°29' E 001°13'1312.9
2015-Jan-16 19:34N 51°30' E 001°33'1514.6
2015-Jan-16 18:33N 51°32' E 001°56'1616.2
2015-Jan-16 17:33N 51°29' E 002°22'1616.1
2015-Jan-16 16:33N 51°27' E 002°48'1615.8
2015-Jan-16 15:33N 51°22' E 003°12'2 1.5
2015-Jan-16 14:33N 51°21' E 003°13'0 0.0
2015-Jan-16 13:33N 51°21' E 003°13'0 0.0
2015-Jan-16 12:33N 51°21' E 003°13'0 0.0
2015-Jan-16 11:33N 51°21' E 003°13'0 0.0
2015-Jan-16 10:33N 51°21' E 003°13'0 0.0
2015-Jan-16 09:33N 51°21' E 003°13'0 0.0
2015-Jan-16 08:33N 51°21' E 003°13'0 0.0
2015-Jan-16 07:30N 51°21' E 003°13'0 0.0
2015-Jan-16 06:27N 51°21' E 003°13'8 8.5
2015-Jan-16 05:33N 51°24' E 003°02'1313.5
2015-Jan-16 04:34N 51°21' E 002°41'1211.9
2015-Jan-16 03:34N 51°20' E 002°22'1110.6
2015-Jan-16 02:33N 51°21' E 002°05'1110.6
2015-Jan-16 01:34N 51°27' E 001°52'3 3.4
2015-Jan-16 00:33N 51°28' E 001°47'1313.1
2015-Jan-15 23:34N 51°28' E 001°26'1616.0
2015-Jan-15 22:33N 51°29' E 001°00'1918.9
2015-Jan-15 21:33N 51°30' E 000°30'9 9.3
2015-Jan-15 20:34N 51°28' E 000°15'0 0.1
2015-Jan-15 19:31N 51°28' E 000°15'0 0.0
2015-Jan-15 18:31N 51°28' E 000°15'0 0.0
2015-Jan-15 17:31N 51°28' E 000°15'0 0.0
2015-Jan-15 16:31N 51°28' E 000°15'0 0.0
2015-Jan-15 15:31N 51°28' E 000°15'0 0.0
2015-Jan-15 14:31N 51°28' E 000°15'  
Track history (hours):
 
Tides and Currents Weather Stations Pressure Air Temp Water Temp Dewpoint Dewpoint Depression Visibility Wind Speed Wind Dir Waves Ship Positions

Celandine

Last reported at 2015-Jan-25 13:33 UTC. Time now 2015-Jan-25 14:16 UTC.
Position N 55°29' E 008°22'.

Length 162 m; draft 6 m.

Type: Ship (hazmat cat A). MMSI: 205476000.

Date/timePositionNaut miles runAvg speedWind from/ knotsBaromVisibWave heightAir tempDewpointWater temp
2015-Jan-25 13:33N 55°29' E 008°22'3 3.2
2015-Jan-25 12:32N 55°27' E 008°27'0 0.0
2015-Jan-25 11:32N 55°27' E 008°27'0 0.0
2015-Jan-25 10:29N 55°27' E 008°27'0 0.0
2015-Jan-25 09:32N 55°27' E 008°27'0 0.0
2015-Jan-25 08:32N 55°27' E 008°27'0 0.0
2015-Jan-25 07:32N 55°27' E 008°27'3 3.3
2015-Jan-25 06:33N 55°29' E 008°22'1313.1
2015-Jan-25 05:33N 55°20' E 008°04'1413.9
2015-Jan-25 04:33N 55°10' E 007°47'1414.0
2015-Jan-25 03:34N 55°00' E 007°30'7514.8
2015-Jan-24 22:31N 54°04' E 006°07'1617.0
2015-Jan-24 21:33N 53°55' E 005°44'1717.3
2015-Jan-24 20:33N 53°46' E 005°19'1717.4
2015-Jan-24 19:33N 53°37' E 004°53'1716.6
2015-Jan-24 18:33N 53°22' E 004°41'1716.8
2015-Jan-24 17:34N 53°07' E 004°29'1616.3
2015-Jan-24 16:33N 52°53' E 004°15'1616.0
2015-Jan-24 15:33N 52°40' E 003°60'1615.6
2015-Jan-24 14:33N 52°29' E 003°42'3014.1
2015-Jan-24 12:26N 52°01' E 003°23'1213.3
2015-Jan-24 11:31N 51°50' E 003°16'1213.0
2015-Jan-24 10:33N 51°38' E 003°08'1313.3
2015-Jan-24 09:33N 51°26' E 003°00'9 9.5
2015-Jan-24 08:33N 51°21' E 003°13'0 0.0
2015-Jan-24 07:31N 51°21' E 003°13'0 0.0
2015-Jan-24 06:31N 51°21' E 003°13'0 0.0
2015-Jan-24 05:31N 51°21' E 003°13'0 0.0
2015-Jan-24 04:31N 51°21' E 003°13'0 0.0
2015-Jan-24 03:31N 51°21' E 003°13'2 2.5
2015-Jan-24 02:34N 51°22' E 003°10'2216.3
2015-Jan-24 01:14N 51°35' E 002°42'1116.3
2015-Jan-24 00:33N 51°35' E 002°24'1515.4
2015-Jan-23 23:33N 51°36' E 001°59'1514.7
2015-Jan-23 22:34N 51°31' E 001°37'1514.9
2015-Jan-23 21:33N 51°29' E 001°14'1515.4
2015-Jan-23 20:33N 51°29' E 000°49'1616.1
2015-Jan-23 19:33N 51°27' E 000°23'5 5.4
2015-Jan-23 18:33N 51°28' E 000°15'0 0.0
2015-Jan-23 17:32N 51°28' E 000°15'0 0.0
2015-Jan-23 16:32N 51°28' E 000°15'0 0.0
2015-Jan-23 15:32N 51°28' E 000°15'0 0.0
2015-Jan-23 14:32N 51°28' E 000°15'0 0.0
2015-Jan-23 13:32N 51°28' E 000°15'0 0.0
2015-Jan-23 12:33N 51°28' E 000°15'5 4.9
2015-Jan-23 11:34N 51°27' E 000°22'1010.4
2015-Jan-23 10:33N 51°30' E 000°38'1211.9
2015-Jan-23 09:34N 51°29' E 000°57'1111.5
2015-Jan-23 08:33N 51°29' E 001°16'1312.9
2015-Jan-23 07:33N 51°31' E 001°36'1414.4
2015-Jan-23 06:33N 51°37' E 001°58'1514.6
2015-Jan-23 05:32N 51°37' E 002°22'3014.9
2015-Jan-23 03:32N 51°24' E 003°05'6 6.4
2015-Jan-23 02:33N 51°21' E 003°13'0 0.0
2015-Jan-23 01:33N 51°21' E 003°13'0 0.0
2015-Jan-23 00:30N 51°21' E 003°13'0 0.0
2015-Jan-22 23:30N 51°21' E 003°13'0 0.0
2015-Jan-22 22:33N 51°21' E 003°13'0 0.0
2015-Jan-22 21:33N 51°21' E 003°13'0 0.0
2015-Jan-22 20:33N 51°21' E 003°13'1211.8
2015-Jan-22 19:34N 51°27' E 002°57'1515.2
2015-Jan-22 18:34N 51°34' E 002°36'1615.6
2015-Jan-22 17:33N 51°41' E 002°12'1717.1
2015-Jan-22 16:34N 51°34' E 001°47'1717.4
2015-Jan-22 15:34N 51°29' E 001°20'1817.8
2015-Jan-22 14:34N 51°29' E 000°52'1514.9
2015-Jan-22 13:33N 51°29' E 000°28'8 7.9
2015-Jan-22 12:33N 51°28' E 000°15'0 0.0
2015-Jan-22 11:33N 51°28' E 000°15'0 0.0
2015-Jan-22 10:33N 51°28' E 000°15'0 0.0
2015-Jan-22 09:33N 51°28' E 000°15'0 0.0
2015-Jan-22 08:33N 51°28' E 000°15'0 0.0
2015-Jan-22 07:33N 51°28' E 000°15'0 0.0
2015-Jan-22 06:33N 51°28' E 000°15'1 0.9
2015-Jan-22 05:34N 51°28' E 000°16'7 7.0
2015-Jan-22 04:34N 51°29' E 000°27'1111.4
2015-Jan-22 03:34N 51°30' E 000°46'1414.0
2015-Jan-22 02:33N 51°29' E 001°08'1515.3
2015-Jan-22 01:33N 51°30' E 001°33'1615.8
2015-Jan-22 00:34N 51°32' E 001°58'1616.1
2015-Jan-21 23:33N 51°28' E 002°23'1216.0
2015-Jan-21 22:50N 51°28' E 002°42'116.9
2015-Jan-21 22:46N 51°28' E 002°43'417.2
2015-Jan-21 22:32N 51°27' E 002°49'1515.6
2015-Jan-21 21:33N 51°21' E 003°12'1 0.7
2015-Jan-21 20:31N 51°21' E 003°13'0 0.0
2015-Jan-21 19:31N 51°21' E 003°13'0 0.0
2015-Jan-21 18:31N 51°21' E 003°13'0 0.0
2015-Jan-21 17:31N 51°21' E 003°13'0 0.0
2015-Jan-21 16:31N 51°21' E 003°13'0 0.0
2015-Jan-21 15:31N 51°21' E 003°13'0 0.0
2015-Jan-21 14:31N 51°21' E 003°13'1010.4
2015-Jan-21 13:34N 51°26' E 002°59'1716.8
2015-Jan-21 12:34N 51°34' E 002°36'1717.3
2015-Jan-21 11:34N 51°36' E 002°08'1515.2
2015-Jan-21 10:34N 51°33' E 001°44'1414.3
2015-Jan-21 09:34N 51°29' E 001°22'1414.4
2015-Jan-21 08:33N 51°29' E 000°59'1616.2
2015-Jan-21 07:33N 51°30' E 000°33'10 9.7
2015-Jan-21 06:34N 51°28' E 000°18'2 1.9
2015-Jan-21 05:31N 51°28' E 000°15'0 0.0
2015-Jan-21 04:31N 51°28' E 000°15'0 0.0
2015-Jan-21 03:31N 51°28' E 000°15'0 0.0
2015-Jan-21 02:31N 51°28' E 000°15'0 0.0
2015-Jan-21 01:31N 51°28' E 000°15'0 0.0
2015-Jan-21 00:31N 51°28' E 000°15'1 0.7
2015-Jan-20 23:33N 51°28' E 000°16'1110.6
2015-Jan-20 22:34N 51°30' E 000°32'1212.4
2015-Jan-20 21:33N 51°29' E 000°52'1717.3
2015-Jan-20 20:33N 51°29' E 001°20'1716.7
2015-Jan-20 19:34N 51°30' E 001°47'1716.7
2015-Jan-20 18:34N 51°29' E 002°13'1716.4
2015-Jan-20 17:32N 51°29' E 002°41'1616.7
2015-Jan-20 16:33N 51°24' E 003°06'6 5.8
2015-Jan-20 15:33N 51°21' E 003°13'0 0.0
2015-Jan-20 14:33N 51°21' E 003°13'0 0.0
2015-Jan-20 13:33N 51°21' E 003°13'0 0.0
2015-Jan-20 12:33N 51°21' E 003°13'0 0.0
2015-Jan-20 11:30N 51°21' E 003°13'0 0.0
2015-Jan-20 10:33N 51°21' E 003°13'0 0.0
2015-Jan-20 09:33N 51°21' E 003°13'9 8.9
2015-Jan-20 08:33N 51°25' E 003°01'1413.9
2015-Jan-20 07:32N 51°33' E 002°42'1515.7
2015-Jan-20 06:34N 51°35' E 002°18'1615.6
2015-Jan-20 05:33N 51°32' E 001°53'1716.6
2015-Jan-20 04:33N 51°29' E 001°27'1817.9
2015-Jan-20 03:33N 51°29' E 000°58'1918.9
2015-Jan-20 02:34N 51°29' E 000°28'8 8.0
2015-Jan-20 01:33N 51°28' E 000°15'0 0.0
2015-Jan-20 00:34N 51°28' E 000°15'0 0.0
2015-Jan-19 23:34N 51°28' E 000°15'0 0.0
2015-Jan-19 22:34N 51°28' E 000°15'0 0.0
2015-Jan-19 21:31N 51°28' E 000°15'0 0.0
2015-Jan-19 20:34N 51°28' E 000°15'0 0.0
2015-Jan-19 19:34N 51°28' E 000°15'1 0.7
2015-Jan-19 18:34N 51°28' E 000°16'9 8.8
2015-Jan-19 17:33N 51°30' E 000°30'1212.1
2015-Jan-19 16:33N 51°29' E 000°49'1414.1
2015-Jan-19 15:33N 51°29' E 001°12'1514.8
2015-Jan-19 14:34N 51°30' E 001°35'1615.7
2015-Jan-19 13:34N 51°33' E 002°00'1615.6
2015-Jan-19 12:33N 51°31' E 002°25'1615.7
2015-Jan-19 11:33N 51°27' E 002°50'1514.6
2015-Jan-19 10:33N 51°22' E 003°11'2 1.8
2015-Jan-19 09:32N 51°21' E 003°13'0 0.0
2015-Jan-19 08:29N 51°21' E 003°13'0 0.0
2015-Jan-19 07:32N 51°21' E 003°13'0 0.0
2015-Jan-19 06:32N 51°21' E 003°13'0 0.0
2015-Jan-19 05:32N 51°21' E 003°13'0 0.0
2015-Jan-19 04:32N 51°21' E 003°13'0 0.0
2015-Jan-19 03:32N 51°21' E 003°13'0 0.0
2015-Jan-19 02:32N 51°21' E 003°13'6 6.2
2015-Jan-19 01:33N 51°24' E 003°05'1616.3
2015-Jan-19 00:33N 51°33' E 002°43'1616.5
2015-Jan-18 23:34N 51°35' E 002°17'1615.7
2015-Jan-18 22:34N 51°34' E 001°51'1615.9
2015-Jan-18 21:33N 51°29' E 001°27'1515.0
2015-Jan-18 20:34N 51°29' E 001°03'1515.2
2015-Jan-18 19:34N 51°30' E 000°39'1111.0
2015-Jan-18 18:34N 51°27' E 000°22'4 4.5
2015-Jan-18 17:33N 51°28' E 000°15'0 0.0
2015-Jan-18 16:33N 51°28' E 000°15'0 0.0
2015-Jan-18 15:33N 51°28' E 000°15'0 0.0
2015-Jan-18 14:33N 51°28' E 000°15'0 0.0
2015-Jan-18 13:33N 51°28' E 000°15'0 0.0
2015-Jan-18 12:33N 51°28' E 000°15'0 0.0
2015-Jan-18 11:33N 51°28' E 000°15'0 0.0
2015-Jan-18 10:33N 51°28' E 000°15'0 0.0
2015-Jan-18 09:33N 51°28' E 000°15'0 0.4
2015-Jan-18 08:33N 51°28' E 000°16'9 8.6
2015-Jan-18 07:34N 51°30' E 000°29'1515.4
2015-Jan-18 06:33N 51°29' E 000°54'1616.4
2015-Jan-18 05:33N 51°29' E 001°20'1313.3
2015-Jan-18 04:33N 51°32' E 001°41'1313.4
2015-Jan-18 03:33N 51°38' E 002°00'9 8.4
2015-Jan-18 02:27N 51°39' E 002°15'1112.7
2015-Jan-18 01:33N 51°35' E 002°32'1212.1
2015-Jan-18 00:32N 51°30' E 002°51'1312.7
2015-Jan-17 23:33N 51°24' E 003°08'5 4.6
2015-Jan-17 22:33N 51°21' E 003°13'0 0.0
2015-Jan-17 21:18N 51°21' E 003°13'0 0.0
2015-Jan-17 20:18N 51°21' E 003°13'0 0.0
2015-Jan-17 19:30N 51°21' E 003°13'0 0.0
2015-Jan-17 18:24N 51°21' E 003°13'0 0.0
2015-Jan-17 14:13N 51°21' E 003°13'6 9.7
2015-Jan-17 13:33N 51°24' E 003°05'1312.3
2015-Jan-17 12:32N 51°31' E 002°48'1615.7
2015-Jan-17 11:33N 51°36' E 002°24'1515.0
2015-Jan-17 10:33N 51°37' E 002°00'1817.6
2015-Jan-17 09:33N 51°30' E 001°34'1616.1
2015-Jan-17 08:33N 51°29' E 001°08'1615.7
2015-Jan-17 07:33N 51°30' E 000°43'1312.8
2015-Jan-17 06:34N 51°27' E 000°23'5 5.0
2015-Jan-17 05:33N 51°28' E 000°15'0 0.0
2015-Jan-17 04:32N 51°28' E 000°15'0 0.0
2015-Jan-17 03:32N 51°28' E 000°15'0 0.0
2015-Jan-17 02:32N 51°28' E 000°15'0 0.0
2015-Jan-17 01:32N 51°28' E 000°15'0 0.0
2015-Jan-17 00:32N 51°28' E 000°15'1 1.2
2015-Jan-16 23:34N 51°28' E 000°16'8 8.3
2015-Jan-16 22:33N 51°30' E 000°29'1312.8
2015-Jan-16 21:33N 51°29' E 000°50'1414.2
2015-Jan-16 20:33N 51°29' E 001°13'1312.9
2015-Jan-16 19:34N 51°30' E 001°33'1514.6
2015-Jan-16 18:33N 51°32' E 001°56'1616.2
2015-Jan-16 17:33N 51°29' E 002°22'1616.1
2015-Jan-16 16:33N 51°27' E 002°48'1615.8
2015-Jan-16 15:33N 51°22' E 003°12'2 1.5
2015-Jan-16 14:33N 51°21' E 003°13'0 0.0
2015-Jan-16 13:33N 51°21' E 003°13'0 0.0
2015-Jan-16 12:33N 51°21' E 003°13'0 0.0
2015-Jan-16 11:33N 51°21' E 003°13'0 0.0
2015-Jan-16 10:33N 51°21' E 003°13'0 0.0
2015-Jan-16 09:33N 51°21' E 003°13'0 0.0
2015-Jan-16 08:33N 51°21' E 003°13'0 0.0
2015-Jan-16 07:30N 51°21' E 003°13'0 0.0
2015-Jan-16 06:27N 51°21' E 003°13'8 8.5
2015-Jan-16 05:33N 51°24' E 003°02'1313.5
2015-Jan-16 04:34N 51°21' E 002°41'1211.9
2015-Jan-16 03:34N 51°20' E 002°22'1110.6
2015-Jan-16 02:33N 51°21' E 002°05'1110.6
2015-Jan-16 01:34N 51°27' E 001°52'3 3.4
2015-Jan-16 00:33N 51°28' E 001°47'1313.1
2015-Jan-15 23:34N 51°28' E 001°26'1616.0
2015-Jan-15 22:33N 51°29' E 001°00'1918.9
2015-Jan-15 21:33N 51°30' E 000°30'9 9.3
2015-Jan-15 20:34N 51°28' E 000°15'0 0.1
2015-Jan-15 19:31N 51°28' E 000°15'0 0.0
2015-Jan-15 18:31N 51°28' E 000°15'0 0.0
2015-Jan-15 17:31N 51°28' E 000°15'0 0.0
2015-Jan-15 16:31N 51°28' E 000°15'0 0.0
2015-Jan-15 15:31N 51°28' E 000°15'0 0.0
2015-Jan-15 14:31N 51°28' E 000°15'  

Dump ship's entire track history